Aeroporto :
LOGIN :

Iscrizione | Disclaimer

   EN    FR    IT 

 










Sommario :    VFR   VFR Marginale   IFR   IFR Intensivo   IFR Molto Intensivo
Visibilità : 
Base nubi : 
>= 8 km
>= 3000ft
5 / 8 km
1000 / 3000 ft
1500m / 5 km
500 / 1000 ft
800 / 1500m
200 / 500 ft
< 800m
< 200 ft
Simboli :   Temporali  Nebbia  Neve Forte  Precipitazioni Forti  Vento > 20 kt
SIGMETs :   Varie  Temporali  Ghiacco  Turbolenza  Onda orograficha  Ceneri Vulcaniche






- Altitudine del aeroporto : 28 ft
- Codice IATA : SOZ


LFKS - Solenzara

ULTIMO METAR :
  • 081300Z AUTO 10004KT 080V150 CAVOK 18/11 Q1024

METARs OBSOLETI :
  • 081230Z AUTO 10005KT 060V130 CAVOK 18/11 Q1024
  • 081200Z AUTO 10004KT 060V130 CAVOK 18/11 Q1024
  • 081130Z AUTO 10004KT 060V130 CAVOK 18/10 Q1025
  • 081100Z AUTO 11004KT 070V160 CAVOK 18/10 Q1025
  • 081030Z AUTO 08005KT 050V130 CAVOK 18/10 Q1025
  • 081000Z AUTO 09005KT 050V130 CAVOK 18/09 Q1025

TAF TAF LFKS
Valido dal 08 a 09 ore il 09 a 09 ore UTC


080800Z 0809/0909 08010KT CAVOK
BECMG 0818/0820 27005KT
BECMG 0907/0909 05010KT



MetMap, La meteo Aeronautica in un colpo d'occhio ! - Copyright ORBIFLY Dicembre 2007 - Disclaimer

ORBIFLY MET'MAP TEAM :

Programmazione e sviluppo : Alexandra Zaïnal
Concezione : Baudouin d'Aumeries
Aiuto per la programmazione : Marc-Olivier Méhu
Supporto tecnico e logistico : Manuel Goepfert
Aiuto per la traduzione : Arnaldo La Scala

Contatto : metmap@orbifly.com




FONTI E CREDITI :

   NOAA